Airport details for: LPCS (Portugal)

Metar

LPCS 240630Z 02012KT CAVOK 18/13 Q1021

General details

ICAO: LPCS
IATA: XXC
Name (city): Cascais
Major:
Country: Portugal
vACC: vACC Portugal
Description:

Cascais Municipal Aerodrome is located 12 km northeast of Cascais near the town of Tires, São Domingos de Rana, Cascais Municipality, in Greater Lisbon.

Ready for international traffic, with a 1400 metre runway, and a terminal with capacity for 300 people, the Cascais Municipal Aerodrome  has the services and means to ensure your safety and comfort while travelling.

Scenery links:
FS9 scenery: Download
FSX/P3D scenery: Download
XP scenery: Download
Elevation: 326 ft.
Transition altitude: 4000 ft.
MSA: 4500 ft.
Latitude: 38.725556
Longitude: -9.355278
LPCS Charts
LPCS Notams
LPCS Online stations

Runways

Number Course Length Elevation Lat Lon ILS ILS freq ILS FAC GP
17 169° 4593ft / 1400 m 326ft 38.729481 -9.3568 - - 3.0°
35 349° 4593ft / 1400 m 287ft 38.719178 -9.35305 - - 3.0°